首页
METAR-TAF:

METAR-TAF

机场 :

布拉格, 捷克共和国

纬度: 50-12-59N, 经度: 014-23-42E, 海拔: 280米

当前天气观测

该预报发布于1小时和54分钟前的13:00 UTC
风速10节,风向西转西北
温度 15°C
湿度 88%
气压 1015 hPa
能见度10公里或以上
阴天层高于8300英尺
小雨

METAR: LKVO 041300Z 30010KT 9999 -RA OVC083 15/13 Q1015

时间: 16:54 (14:54 UTC)


TAF: 丢失

超过4000个机场的气象观测和天气预报(METAR&TAF报告)。

可查询的气象台以黄色和红色小点在地图上表示。

将鼠标移到小点上方,可查看气象台名称。

然后点击查看天气观测和预报。

如需切换地图:点击带黑十字的绿色按钮放大地图;点击带横线的绿色按钮缩小地图;或者点击绿色箭头查看邻近地区的地图。


METAR-TAF: